Time;durP1;ratioP1;P1;durP2;ratioP2;P2;SDS_P1;SDS_P2;PMS_P1;PMS_P2;Temp;Humidity;BMP_temperature;BMP_pressure;BME280_temperature;BME280_humidity;BME280_pressure;Samples;Min_cycle;Max_cycle;Signal;HPM_P1;HPM_P2
2023/08/23 00:00:28;;;;;;;;;19.75;19.75;;;;;16.98;72.23;100312.59;4978947;28;8825;-88
2023/08/23 00:02:55;;;;;;;;;21.50;21.00;;;;;16.94;72.70;100317.44;4979268;28;8844;-87
2023/08/23 00:05:24;;;;;;;;;18.25;16.75;;;;;16.90;72.36;100318.75;4979460;28;8858;-87
2023/08/23 00:07:51;;;;;;;;;19.50;19.00;;;;;16.87;72.29;100318.22;4979383;28;8914;-88
2023/08/23 00:10:19;;;;;;;;;23.25;21.25;;;;;16.83;72.34;100314.97;4978809;28;8877;-87
2023/08/23 00:12:49;;;;;;;;;21.25;20.00;;;;;16.81;72.89;100316.97;4979508;28;8852;-88
2023/08/23 00:15:17;;;;;;;;;20.75;20.00;;;;;16.79;72.05;100316.25;4979626;28;8851;-87
2023/08/23 00:17:44;;;;;;;;;25.50;24.50;;;;;16.78;72.35;100308.38;4979770;28;8840;-88
2023/08/23 00:20:12;;;;;;;;;22.25;21.50;;;;;16.77;72.28;100312.88;4979326;28;8844;-87
2023/08/23 00:22:40;;;;;;;;;27.75;27.25;;;;;16.75;72.93;100316.72;4979783;28;8970;-87
2023/08/23 00:25:08;;;;;;;;;19.50;18.00;;;;;16.74;73.01;100317.72;4978986;28;8874;-88
2023/08/23 00:27:35;;;;;;;;;27.50;26.25;;;;;16.70;72.58;100316.34;4978957;28;8860;-87
2023/08/23 00:30:03;;;;;;;;;26.00;23.00;;;;;16.67;73.37;100312.13;4978670;28;8927;-87
2023/08/23 00:32:30;;;;;;;;;27.00;24.50;;;;;16.67;72.17;100317.50;4979230;28;8865;-88
2023/08/23 00:34:58;;;;;;;;;28.00;27.00;;;;;16.65;72.76;100314.09;4979210;28;8851;-88
2023/08/23 00:37:26;;;;;;;;;25.50;24.50;;;;;16.65;72.99;100313.25;4979152;28;8857;-87
2023/08/23 00:39:53;;;;;;;;;23.75;22.50;;;;;16.63;72.53;100315.25;4978792;28;8871;-88
2023/08/23 00:42:21;;;;;;;;;20.75;20.75;;;;;16.61;73.19;100317.22;4978953;28;8875;-88
2023/08/23 00:44:49;;;;;;;;;22.75;21.50;;;;;16.57;73.03;100308.63;4979171;28;8883;-88
2023/08/23 00:47:16;;;;;;;;;27.50;22.50;;;;;16.55;73.12;100309.78;4979199;28;8844;-88
2023/08/23 00:49:46;;;;;;;;;24.75;24.00;;;;;16.56;73.02;100320.38;4977820;28;8871;-88
2023/08/23 00:52:13;;;;;;;;;28.75;27.75;;;;;16.56;73.04;100320.38;4965110;28;8833;-88
2023/08/23 00:54:41;;;;;;;;;22.00;21.50;;;;;16.54;72.91;100317.00;4979001;28;8844;-88
2023/08/23 00:57:08;;;;;;;;;25.00;21.00;;;;;16.49;73.33;100319.28;4978463;28;8836;-87
2023/08/23 00:59:36;;;;;;;;;25.00;25.00;;;;;16.44;73.22;100318.03;4978656;28;8853;-87
2023/08/23 01:02:03;;;;;;;;;21.50;21.50;;;;;16.39;73.42;100313.13;4978613;28;8927;-88
2023/08/23 01:04:30;;;;;;;;;25.50;23.00;;;;;16.35;72.86;100319.75;4978783;28;8845;-88
2023/08/23 01:06:58;;;;;;;;;22.00;21.75;;;;;16.31;73.57;100310.31;4978324;28;8849;-88
2023/08/23 01:09:25;;;;;;;;;22.00;19.00;;;;;16.29;73.42;100312.31;4978716;28;8825;-88
2023/08/23 01:11:53;;;;;;;;;22.00;20.50;;;;;16.24;73.68;100302.97;4978837;28;8836;-88
2023/08/23 01:14:22;;;;;;;;;21.00;18.00;;;;;16.23;73.22;100297.78;4978801;28;8860;-87
2023/08/23 01:16:49;;;;;;;;;24.25;24.00;;;;;16.19;73.77;100298.03;4978353;28;8860;-88
2023/08/23 01:19:17;;;;;;;;;23.00;21.75;;;;;16.20;73.44;100298.91;4978183;28;8848;-88
2023/08/23 01:21:45;;;;;;;;;22.50;21.00;;;;;16.23;73.38;100295.91;4978205;28;9021;-88
2023/08/23 01:24:12;;;;;;;;;18.25;17.00;;;;;16.26;73.31;100299.16;4978479;28;8840;-88
2023/08/23 01:26:40;;;;;;;;;21.75;19.75;;;;;16.25;73.29;100291.25;4978016;28;8864;-87
2023/08/23 01:29:07;;;;;;;;;19.25;18.25;;;;;16.21;73.44;100297.91;4978264;28;8864;-87
2023/08/23 01:31:35;;;;;;;;;21.75;21.75;;;;;16.18;73.73;100292.84;4978143;28;8915;-88
2023/08/23 01:34:03;;;;;;;;;18.00;17.00;;;;;16.16;73.51;100297.50;4978663;28;8978;-87
2023/08/23 01:36:31;;;;;;;;;19.75;19.50;;;;;16.16;73.59;100293.97;4977840;28;8840;-88
2023/08/23 01:38:58;;;;;;;;;20.75;19.25;;;;;16.16;73.65;100296.66;4958839;28;8847;-88
2023/08/23 01:41:26;;;;;;;;;23.50;22.00;;;;;16.15;73.82;100297.66;4959049;28;8854;-87
2023/08/23 01:43:54;;;;;;;;;15.50;15.00;;;;;16.11;73.58;100291.75;4958799;28;8839;-89
2023/08/23 01:46:21;;;;;;;;;15.25;14.00;;;;;16.10;73.20;100290.06;4973863;28;8859;-89
2023/08/23 01:48:49;;;;;;;;;19.50;17.25;;;;;16.08;73.87;100292.03;4978469;28;8832;-89
2023/08/23 01:51:17;;;;;;;;;21.75;21.25;;;;;16.07;73.67;100284.97;4977919;28;8867;-89
2023/08/23 01:53:44;;;;;;;;;21.25;21.25;;;;;16.08;73.88;100294.72;4978070;28;8860;-88
2023/08/23 01:56:12;;;;;;;;;21.50;19.75;;;;;16.06;73.70;100287.78;4977758;28;8833;-89
2023/08/23 01:58:40;;;;;;;;;18.50;18.00;;;;;16.05;73.44;100291.47;4977987;28;8840;-89
2023/08/23 02:01:07;;;;;;;;;23.50;22.00;;;;;16.01;73.62;100287.41;4977787;28;8844;-89
2023/08/23 02:03:35;;;;;;;;;22.00;19.00;;;;;15.99;73.41;100284.84;4977018;28;8837;-89
2023/08/23 02:06:02;;;;;;;;;28.00;23.25;;;;;15.98;74.00;100287.69;4977509;28;8845;-90
2023/08/23 02:08:30;;;;;;;;;24.50;23.50;;;;;15.98;73.46;100285.84;4977908;28;8848;-89
2023/08/23 02:10:58;;;;;;;;;26.00;23.50;;;;;15.98;73.94;100276.94;4978256;28;8867;-89
2023/08/23 02:13:25;;;;;;;;;16.25;15.00;;;;;15.94;73.49;100278.25;4977181;28;8833;-89
2023/08/23 02:15:53;;;;;;;;;20.75;20.00;;;;;15.92;74.02;100281.06;4977468;28;8864;-88
2023/08/23 02:18:21;;;;;;;;;22.50;20.50;;;;;15.90;74.03;100274.13;4976627;28;8863;-88
2023/08/23 02:20:49;;;;;;;;;22.75;21.50;;;;;15.87;73.98;100274.44;4977418;28;8848;-88
2023/08/23 02:23:16;;;;;;;;;21.00;20.00;;;;;15.84;74.02;100275.59;4977233;28;8849;-89
2023/08/23 02:25:44;;;;;;;;;14.75;14.50;;;;;15.83;73.69;100279.28;4977966;28;8837;-89
2023/08/23 02:28:12;;;;;;;;;18.00;18.00;;;;;15.81;74.12;100275.03;4977340;28;8856;-88
2023/08/23 02:30:39;;;;;;;;;16.75;16.25;;;;;15.80;73.98;100273.34;4977354;28;8848;-89
2023/08/23 02:33:07;;;;;;;;;19.25;17.75;;;;;15.78;74.15;100267.28;4977122;28;8832;-89
2023/08/23 02:35:34;;;;;;;;;16.00;15.25;;;;;15.77;74.03;100279.84;4977618;28;8836;-89
2023/08/23 02:38:02;;;;;;;;;17.00;16.25;;;;;15.76;74.32;100264.72;4977265;28;8844;-89
2023/08/23 02:40:29;;;;;;;;;21.50;19.00;;;;;15.75;73.87;100271.09;4976276;28;8837;-88
2023/08/23 02:42:57;;;;;;;;;15.25;13.50;;;;;15.73;73.92;100264.19;4975541;28;8935;-88
2023/08/23 02:45:26;;;;;;;;;17.50;16.00;;;;;15.72;74.19;100265.19;4976623;28;8859;-88
2023/08/23 02:47:53;;;;;;;;;20.25;18.75;;;;;15.71;74.05;100271.53;4975921;28;8872;-88
2023/08/23 02:50:21;;;;;;;;;15.50;14.00;;;;;15.68;74.22;100277.19;4975916;28;9002;-89
2023/08/23 02:52:49;;;;;;;;;15.00;14.50;;;;;15.68;74.26;100277.19;4976416;28;8848;-88
2023/08/23 02:55:16;;;;;;;;;15.00;14.25;;;;;15.66;73.69;100271.13;4976669;28;8863;-89
2023/08/23 02:57:44;;;;;;;;;16.50;15.00;;;;;15.63;74.50;100276.78;4975952;28;8875;-88
2023/08/23 03:00:12;;;;;;;;;22.50;18.00;;;;;15.58;74.18;100268.31;4976470;28;8867;-89
2023/08/23 03:02:40;;;;;;;;;21.00;19.50;;;;;15.54;74.61;100275.00;4976727;28;8849;-89
2023/08/23 03:05:08;;;;;;;;;19.50;19.00;;;;;15.49;74.63;100278.09;4976697;28;8853;-88
2023/08/23 03:07:35;;;;;;;;;19.50;18.00;;;;;15.47;74.49;100266.66;4976160;28;8833;-88
2023/08/23 03:10:03;;;;;;;;;14.25;12.50;;;;;15.45;74.53;100274.00;4976761;28;8844;-88
2023/08/23 03:12:30;;;;;;;;;18.00;15.00;;;;;15.42;74.07;100266.25;4977090;28;8852;-88
2023/08/23 03:14:58;;;;;;;;;21.50;19.00;;;;;15.41;74.76;100264.53;4976647;28;8864;-88
2023/08/23 03:17:25;;;;;;;;;18.00;15.75;;;;;15.41;74.34;100264.53;4976108;28;8856;-88
2023/08/23 03:19:53;;;;;;;;;21.75;21.50;;;;;15.39;74.84;100261.16;4976557;28;8829;-88
2023/08/23 03:22:21;;;;;;;;;21.25;18.50;;;;;15.39;74.87;100257.66;4976236;28;8891;-88
2023/08/23 03:24:49;;;;;;;;;19.75;19.75;;;;;15.37;74.19;100263.16;4956631;28;8858;-88
2023/08/23 03:27:18;;;;;;;;;20.50;20.50;;;;;15.35;74.83;100259.78;4956959;28;8917;-88
2023/08/23 03:29:45;;;;;;;;;22.25;21.50;;;;;15.33;74.53;100253.69;4956393;29;8936;-88
2023/08/23 03:32:13;;;;;;;;;18.50;18.50;;;;;15.35;74.52;100254.41;4956252;28;8843;-88
2023/08/23 03:34:41;;;;;;;;;17.75;17.00;;;;;15.37;74.35;100248.88;4974718;28;8958;-88
2023/08/23 03:37:09;;;;;;;;;20.25;20.25;;;;;15.36;74.61;100241.81;4975968;28;8865;-88
2023/08/23 03:39:37;;;;;;;;;19.00;18.25;;;;;15.38;74.42;100254.09;4975129;28;8855;-89
2023/08/23 03:42:05;;;;;;;;;18.50;15.50;;;;;15.36;74.54;100242.69;4976124;28;8840;-88
2023/08/23 03:44:32;;;;;;;;;17.50;16.75;;;;;15.34;74.26;100243.81;4975850;28;8837;-88
2023/08/23 03:47:00;;;;;;;;;17.25;16.00;;;;;15.27;74.48;100243.53;4975528;28;8840;-88
2023/08/23 03:49:29;;;;;;;;;19.50;18.25;;;;;15.21;74.55;100246.78;4975776;28;8848;-88
2023/08/23 03:51:57;;;;;;;;;14.00;13.75;;;;;15.16;74.51;100243.66;4976099;28;8863;-87
2023/08/23 03:54:25;;;;;;;;;19.50;18.00;;;;;15.11;74.99;100243.22;4972955;28;8937;-88
2023/08/23 03:56:52;;;;;;;;;19.50;18.50;;;;;15.07;75.17;100257.06;4973391;28;8868;-87
2023/08/23 03:59:20;;;;;;;;;15.75;14.50;;;;;15.03;74.40;100253.00;4973032;28;9593;-89
2023/08/23 04:01:48;;;;;;;;;14.75;14.75;;;;;14.99;74.94;100246.22;4973857;28;8845;-89
2023/08/23 04:04:15;;;;;;;;;17.25;16.75;;;;;14.98;75.41;100253.44;4973339;28;8836;-89
2023/08/23 04:06:43;;;;;;;;;16.50;16.00;;;;;14.98;75.31;100249.91;4972712;28;8868;-89
2023/08/23 04:09:10;;;;;;;;;17.50;16.50;;;;;14.95;75.15;100245.66;4973410;28;8882;-89
2023/08/23 04:11:38;;;;;;;;;15.50;15.50;;;;;14.95;75.25;100252.88;4973992;28;8853;-89
2023/08/23 04:14:06;;;;;;;;;20.25;16.00;;;;;14.94;74.65;100243.13;4974163;28;8858;-89
2023/08/23 04:16:34;;;;;;;;;18.00;17.50;;;;;14.94;75.00;100249.34;4974150;28;8855;-89
2023/08/23 04:19:01;;;;;;;;;18.00;17.50;;;;;14.95;74.82;100250.19;4974284;28;8841;-89
2023/08/23 04:21:29;;;;;;;;;18.00;16.00;;;;;14.94;75.20;100243.13;4974892;28;8849;-89
2023/08/23 04:23:57;;;;;;;;;22.00;20.00;;;;;14.95;75.35;100250.19;4974536;28;8899;-89
2023/08/23 04:26:24;;;;;;;;;17.25;17.25;;;;;14.95;74.78;100251.03;4974459;28;8845;-89
2023/08/23 04:28:52;;;;;;;;;13.25;12.25;;;;;14.96;74.64;100247.34;4975966;28;8942;-89
2023/08/23 04:31:19;;;;;;;;;18.50;18.00;;;;;14.98;74.99;100255.25;4975833;28;8863;-89
2023/08/23 04:33:48;;;;;;;;;21.67;20.33;;;;;15.01;74.67;100244.25;4975950;28;8868;-89
2023/08/23 04:36:16;;;;;;;;;21.00;18.00;;;;;15.03;75.20;100258.38;4974781;28;8845;-89
2023/08/23 04:38:44;;;;;;;;;20.50;18.75;;;;;15.03;74.46;100247.63;4975267;28;8840;-89
2023/08/23 04:41:11;;;;;;;;;21.75;20.50;;;;;15.04;74.33;100254.69;4975022;28;9606;-89
2023/08/23 04:43:39;;;;;;;;;21.25;20.00;;;;;15.03;74.80;100251.16;4978104;28;9554;-89
2023/08/23 04:46:07;;;;;;;;;19.75;18.75;;;;;15.02;74.53;100259.38;4978406;28;8871;-89
2023/08/23 04:48:34;;;;;;;;;12.25;9.75;;;;;14.99;74.43;100263.16;4978228;28;8962;-89
2023/08/23 04:51:02;;;;;;;;;19.75;18.00;;;;;14.98;74.53;100261.47;4978257;28;9495;-89
2023/08/23 04:53:30;;;;;;;;;19.50;19.00;;;;;14.98;75.05;100260.63;4978524;28;8870;-88
2023/08/23 04:55:58;;;;;;;;;11.25;10.50;;;;;15.00;74.69;100261.31;4978031;28;8833;-89
2023/08/23 04:58:29;;;;;;;;;20.50;19.75;;;;;15.01;74.64;100255.81;4977644;28;8852;-89
2023/08/23 05:00:59;;;;;;;;;17.75;15.75;;;;;15.06;74.30;100268.81;4977821;28;8856;-89
2023/08/23 05:03:26;;;;;;;;;17.50;16.50;;;;;15.08;74.67;100267.69;4977129;28;8836;-89
2023/08/23 05:05:54;;;;;;;;;15.75;15.75;;;;;15.11;73.92;100266.56;4977294;28;8848;-89
2023/08/23 05:08:22;;;;;;;;;18.25;17.00;;;;;15.16;74.22;100269.66;4976124;28;8837;-88
2023/08/23 05:10:49;;;;;;;;;18.75;18.75;;;;;15.21;74.00;100273.59;4975573;28;8832;-89
2023/08/23 05:13:17;;;;;;;;;15.50;15.00;;;;;15.26;74.43;100281.22;4974915;28;8863;-89
2023/08/23 05:15:45;;;;;;;;;17.50;16.25;;;;;15.32;74.10;100275.31;4974837;28;8864;-89
2023/08/23 05:18:13;;;;;;;;;21.75;19.00;;;;;15.39;73.42;100284.50;4975001;28;8848;-89
2023/08/23 05:20:41;;;;;;;;;22.50;21.00;;;;;15.43;73.42;100278.69;4974965;28;8860;-89
2023/08/23 05:23:08;;;;;;;;;25.50;21.25;;;;;15.51;73.74;100284.19;4974492;28;8884;-90
2023/08/23 05:25:36;;;;;;;;;18.00;16.50;;;;;15.59;73.41;100278.94;4975288;28;8875;-90
2023/08/23 05:28:03;;;;;;;;;16.50;16.00;;;;;15.68;73.09;100272.69;4975785;28;8876;-90
2023/08/23 05:30:31;;;;;;;;;18.00;17.00;;;;;15.80;73.05;100270.66;4976400;28;9228;-90
2023/08/23 05:32:59;;;;;;;;;18.75;17.75;;;;;15.85;72.81;100263.00;4977760;28;9531;-90
2023/08/23 05:35:26;;;;;;;;;14.00;14.00;;;;;15.86;73.10;100267.38;4977319;28;8882;-90
2023/08/23 05:37:54;;;;;;;;;15.75;15.50;;;;;15.87;72.76;100261.03;4976757;28;8852;-90
2023/08/23 05:40:22;;;;;;;;;17.50;17.25;;;;;15.92;72.93;100266.81;4976899;28;8848;-90
2023/08/23 05:42:49;;;;;;;;;18.50;18.00;;;;;15.96;72.59;100262.81;4977308;28;8852;-90
2023/08/23 05:45:17;;;;;;;;;16.00;16.00;;;;;16.02;72.35;100268.47;4976559;28;8844;-90
2023/08/23 05:47:45;;;;;;;;;20.00;18.50;;;;;16.10;72.69;100273.06;4975601;28;8931;-90
2023/08/23 05:50:13;;;;;;;;;18.50;17.00;;;;;16.19;72.63;100271.16;4975764;28;8975;-90
2023/08/23 05:52:41;;;;;;;;;17.25;16.00;;;;;16.32;71.48;100268.16;4974104;28;8832;-90
2023/08/23 05:55:09;;;;;;;;;15.00;13.50;;;;;16.43;71.59;100274.22;4973687;28;8855;-90
2023/08/23 05:57:37;;;;;;;;;18.50;18.50;;;;;16.55;71.83;100274.84;4973676;28;9007;-90
2023/08/23 06:00:05;;;;;;;;;20.00;18.50;;;;;16.69;70.96;100282.34;4974435;28;8868;-90
2023/08/23 06:02:33;;;;;;;;;20.50;19.50;;;;;16.81;71.31;100273.94;4974406;28;8903;-90
2023/08/23 06:05:00;;;;;;;;;21.00;21.00;;;;;16.94;70.63;100271.69;4973973;28;8975;-90
2023/08/23 06:07:28;;;;;;;;;14.25;14.25;;;;;17.04;70.95;100258.16;4974513;28;8852;-90
2023/08/23 06:09:56;;;;;;;;;20.00;19.50;;;;;17.17;70.42;100261.31;4974046;28;8860;-90
2023/08/23 06:12:25;;;;;;;;;22.50;22.50;;;;;17.27;70.68;100262.91;4974540;28;8848;-90
2023/08/23 06:14:53;;;;;;;;;18.50;17.50;;;;;17.39;70.38;100264.34;4974684;28;8832;-90
2023/08/23 06:17:20;;;;;;;;;26.50;26.50;;;;;17.51;69.76;100263.09;4973600;28;8865;-90
2023/08/23 06:19:48;;;;;;;;;22.25;20.50;;;;;17.66;69.95;100260.66;4973430;28;9515;-90
2023/08/23 06:22:17;;;;;;;;;19.50;18.25;;;;;17.82;69.41;100263.44;4973703;28;8859;-90
2023/08/23 06:24:45;;;;;;;;;25.00;21.25;;;;;17.99;69.53;100271.47;4974097;28;8852;-90
2023/08/23 06:27:12;;;;;;;;;12.00;11.50;;;;;18.18;68.98;100267.69;4974691;28;8852;-90
2023/08/23 06:29:40;;;;;;;;;19.50;17.00;;;;;18.35;68.75;100270.31;4975065;28;8866;-90
2023/08/23 06:32:08;;;;;;;;;20.80;19.00;;;;;18.53;68.15;100264.81;4974700;28;9534;-90
2023/08/23 06:34:36;;;;;;;;;23.50;21.75;;;;;18.69;67.81;100270.25;4974530;28;8841;-90
2023/08/23 06:37:03;;;;;;;;;22.80;22.20;;;;;18.85;67.56;100273.81;4974328;28;8872;-90
2023/08/23 06:39:31;;;;;;;;;22.20;21.20;;;;;18.99;67.59;100275.00;4975025;28;8848;-90
2023/08/23 06:42:01;;;;;;;;;22.20;21.20;;;;;19.05;67.36;100269.78;4973533;28;8856;-90
2023/08/23 06:44:28;;;;;;;;;22.80;21.40;;;;;19.10;67.52;100267.41;4972227;28;8848;-90
2023/08/23 06:46:56;;;;;;;;;25.40;23.40;;;;;19.13;67.43;100258.97;4972243;28;8994;-90
2023/08/23 06:49:24;;;;;;;;;19.80;19.80;;;;;19.20;67.55;100270.81;4971651;28;8903;-90
2023/08/23 06:51:52;;;;;;;;;25.80;24.80;;;;;19.24;67.16;100266.78;4972646;28;8983;-90
2023/08/23 06:54:20;;;;;;;;;21.60;20.20;;;;;19.30;67.66;100255.31;4974735;28;9568;-90
2023/08/23 06:56:47;;;;;;;;;22.40;20.00;;;;;19.37;67.42;100266.28;4974676;28;8871;-90
2023/08/23 06:59:15;;;;;;;;;20.00;17.40;;;;;19.45;67.44;100263.56;4974501;28;8877;-90
2023/08/23 07:01:43;;;;;;;;;21.40;19.80;;;;;19.54;67.17;100268.78;4974948;28;8867;-90
2023/08/23 07:04:11;;;;;;;;;24.20;20.20;;;;;19.63;66.44;100266.91;4974403;28;8837;-90
2023/08/23 07:06:41;;;;;;;;;28.60;27.60;;;;;19.65;66.82;100267.59;4974677;28;8855;-90
2023/08/23 07:09:10;;;;;;;;;26.60;24.40;;;;;19.67;66.99;100268.25;4974779;28;8975;-90
2023/08/23 07:11:38;;;;;;;;;27.40;24.40;;;;;19.70;66.89;100274.16;4975650;28;8849;-90
2023/08/23 07:14:06;;;;;;;;;25.20;24.00;;;;;19.74;66.86;100275.53;4975554;28;9574;-90
2023/08/23 07:16:34;;;;;;;;;14.00;12.60;;;;;19.76;66.85;100272.63;4974620;28;8888;-90
2023/08/23 07:19:02;;;;;;;;;19.00;16.40;;;;;19.77;67.37;100268.91;4973937;28;8837;-90
2023/08/23 07:21:30;;;;;;;;;21.40;19.80;;;;;19.79;67.15;100277.72;4973061;28;8939;-90
2023/08/23 07:23:58;;;;;;;;;25.20;24.80;;;;;19.80;66.98;100284.78;4973381;28;9340;-90
2023/08/23 07:26:26;;;;;;;;;23.20;21.80;;;;;19.81;67.41;100286.47;4972980;28;8938;-90
2023/08/23 07:28:54;;;;;;;;;23.00;22.20;;;;;19.84;67.22;100289.69;4972998;28;9542;-90
2023/08/23 07:31:22;;;;;;;;;25.20;22.60;;;;;19.91;67.02;100304.19;4972863;28;8861;-90
2023/08/23 07:33:50;;;;;;;;;25.00;22.00;;;;;20.01;67.14;100294.03;4973120;28;9038;-89
2023/08/23 07:36:18;;;;;;;;;18.60;16.00;;;;;20.15;66.26;100298.75;4973940;28;8845;-90
2023/08/23 07:38:46;;;;;;;;;18.40;18.40;;;;;20.30;66.57;100297.00;4973798;28;8867;-90
2023/08/23 07:41:14;;;;;;;;;20.20;19.60;;;;;20.47;66.33;100304.03;4973723;28;8852;-90
2023/08/23 07:43:42;;;;;;;;;18.80;18.80;;;;;20.55;66.27;100308.56;4973739;28;8850;-90
2023/08/23 07:46:09;;;;;;;;;21.20;20.80;;;;;20.57;65.87;100310.09;4973473;28;8934;-89
2023/08/23 07:48:38;;;;;;;;;22.60;20.40;;;;;20.58;66.24;100308.22;4972639;28;8845;-90
2023/08/23 07:51:07;;;;;;;;;19.40;19.40;;;;;20.53;66.59;100308.75;4973023;28;8849;-90
2023/08/23 07:53:35;;;;;;;;;20.20;18.80;;;;;20.45;66.56;100308.78;4974094;28;8878;-90
2023/08/23 07:56:03;;;;;;;;;24.20;21.40;;;;;20.41;66.94;100310.13;4974173;28;8828;-90
2023/08/23 07:58:33;;;;;;;;;22.00;20.00;;;;;20.49;66.95;100318.22;4974490;28;8845;-89
2023/08/23 08:01:01;;;;;;;;;24.20;23.80;;;;;20.67;66.58;100316.94;4974599;28;8903;-89
2023/08/23 08:03:28;;;;;;;;;20.40;18.80;;;;;20.86;65.72;100315.66;4974253;28;9530;-90
2023/08/23 08:05:57;;;;;;;;;16.20;14.00;;;;;21.00;65.87;100323.06;4973462;28;8930;-90
2023/08/23 08:08:27;;;;;;;;;13.40;13.00;;;;;21.06;65.89;100308.78;4973065;28;8845;-90
2023/08/23 08:10:55;;;;;;;;;23.80;20.40;;;;;21.05;65.38;100318.78;4973079;28;9309;-89
2023/08/23 08:13:23;;;;;;;;;17.80;16.80;;;;;21.02;65.80;100315.63;4973471;28;8896;-90
2023/08/23 08:15:51;;;;;;;;;24.60;23.40;;;;;21.07;65.44;100319.47;4973241;28;8837;-90
2023/08/23 08:18:19;;;;;;;;;20.80;18.60;;;;;21.20;65.59;100321.56;4976423;28;9754;-90
2023/08/23 08:20:46;;;;;;;;;20.20;19.20;;;;;21.35;65.30;100308.91;4976841;28;8872;-90
2023/08/23 08:23:14;;;;;;;;;16.40;14.40;;;;;21.51;64.71;100308.78;4976259;28;8848;-90
2023/08/23 08:25:42;;;;;;;;;18.40;17.80;;;;;21.63;64.90;100312.75;4976644;28;8910;-90
2023/08/23 08:28:10;;;;;;;;;18.00;18.00;;;;;21.78;64.79;100316.38;4976724;28;8979;-90
2023/08/23 08:30:38;;;;;;;;;17.40;14.60;;;;;21.94;64.54;100316.22;4977112;28;8870;-90
2023/08/23 08:33:06;;;;;;;;;15.60;14.80;;;;;22.09;63.90;100309.75;4977372;28;8856;-90
2023/08/23 08:35:34;;;;;;;;;12.00;12.00;;;;;22.26;63.77;100324.84;4975067;28;8861;-90
2023/08/23 08:38:02;;;;;;;;;12.00;11.00;;;;;22.42;63.12;100321.09;4976881;28;8848;-90
2023/08/23 08:40:29;;;;;;;;;14.80;13.60;;;;;22.51;63.24;100323.53;4977763;28;9697;-90
2023/08/23 08:42:58;;;;;;;;;13.00;13.00;;;;;22.64;62.61;100325.56;4976370;28;8868;-90
2023/08/23 08:45:26;;;;;;;;;15.00;13.00;;;;;22.79;62.46;100323.69;4977624;28;8836;-90
2023/08/23 08:47:54;;;;;;;;;16.60;15.80;;;;;22.93;62.77;100320.91;4976146;28;8859;-90
2023/08/23 08:50:22;;;;;;;;;12.60;12.60;;;;;23.08;62.07;100329.03;4976940;28;8844;-89
2023/08/23 08:52:49;;;;;;;;;14.20;11.80;;;;;23.23;62.00;100327.13;4977304;28;8852;-90
2023/08/23 08:55:17;;;;;;;;;12.00;10.20;;;;;23.37;61.78;100326.25;4976592;28;8844;-90
2023/08/23 08:57:45;;;;;;;;;8.40;8.40;;;;;23.52;61.44;100333.28;4976446;28;8844;-90
2023/08/23 09:00:13;;;;;;;;;7.20;7.20;;;;;23.67;61.10;100328.59;4977271;28;8886;-90
2023/08/23 09:02:41;;;;;;;;;9.40;8.80;;;;;23.80;61.32;100327.84;4976375;28;8868;-90
2023/08/23 09:05:09;;;;;;;;;8.60;8.60;;;;;23.86;61.47;100335.28;4976222;28;8864;-89
2023/08/23 09:07:37;;;;;;;;;12.00;8.40;;;;;23.95;61.04;100329.50;4975253;28;8942;-90
2023/08/23 09:10:05;;;;;;;;;7.80;7.60;;;;;24.06;60.54;100331.66;4976244;28;8837;-89
2023/08/23 09:12:32;;;;;;;;;6.00;6.00;;;;;24.15;61.09;100335.06;4975911;28;9135;-90
2023/08/23 09:15:00;;;;;;;;;6.00;6.00;;;;;24.21;60.33;100320.66;4976637;28;8856;-89
2023/08/23 09:17:33;;;;;;;;;8.60;6.80;;;;;24.28;60.66;100324.28;4976286;28;8852;-89
2023/08/23 09:20:01;;;;;;;;;7.00;7.00;;;;;24.38;60.01;100320.16;4975630;28;8951;-89
2023/08/23 09:22:29;;;;;;;;;4.20;4.20;;;;;24.53;59.64;100322.72;4976431;28;8852;-89
2023/08/23 09:24:57;;;;;;;;;7.80;7.20;;;;;24.66;59.46;100318.22;4975704;28;9593;-89
2023/08/23 09:27:26;;;;;;;;;5.00;3.40;;;;;24.73;59.59;100318.25;4975864;28;8867;-90
2023/08/23 09:30:04;;;;;;;;;5.60;5.40;;;;;24.74;59.50;100309.03;4975536;28;8869;-89
2023/08/23 09:32:32;;;;;;;;;9.00;6.80;;;;;24.79;59.29;100307.38;4975669;28;8864;-89
2023/08/23 09:35:00;;;;;;;;;5.00;5.00;;;;;24.83;59.35;100315.97;4975549;28;8840;-89
2023/08/23 09:37:28;;;;;;;;;5.80;5.00;;;;;24.95;59.63;100317.09;4974931;28;8951;-89
2023/08/23 09:39:56;;;;;;;;;7.40;6.60;;;;;25.02;59.16;100304.31;4975982;28;8833;-90
2023/08/23 09:42:24;;;;;;;;;8.60;7.00;;;;;25.09;59.11;100308.72;4975564;28;8856;-89
2023/08/23 09:44:52;;;;;;;;;7.00;7.00;;;;;25.24;58.75;100298.50;4974548;28;8963;-89
2023/08/23 09:47:19;;;;;;;;;9.00;9.00;;;;;25.51;58.76;100294.78;4974773;28;8890;-89
2023/08/23 09:49:47;;;;;;;;;9.20;7.20;;;;;25.84;57.96;100292.88;4974628;28;8926;-92
2023/08/23 09:52:15;;;;;;;;;9.80;8.40;;;;;26.22;57.14;100292.00;4974903;28;8876;-89
2023/08/23 09:54:43;;;;;;;;;11.00;10.40;;;;;26.58;56.63;100289.59;4975034;28;8848;-89
2023/08/23 09:57:30;;;;;;;;;11.40;8.00;;;;;27.09;56.40;100287.66;4974765;28;8967;-89
2023/08/23 09:59:59;;;;;;;;;9.60;7.80;;;;;27.72;54.74;100283.84;4974510;28;9507;-89
2023/08/23 10:02:27;;;;;;;;;5.00;3.80;;;;;28.28;53.96;100279.09;4974365;28;8864;-90
2023/08/23 10:04:56;;;;;;;;;10.00;8.00;;;;;28.70;53.34;100282.84;4973887;28;8995;-87
2023/08/23 10:07:23;;;;;;;;;8.60;7.40;;;;;29.15;52.45;100273.19;4973398;28;8845;-87
2023/08/23 10:09:51;;;;;;;;;8.60;8.20;;;;;29.68;51.58;100272.16;4972154;28;8860;-87
2023/08/23 10:12:19;;;;;;;;;7.40;7.00;;;;;30.10;51.31;100284.72;4972136;28;8878;-87
2023/08/23 10:14:47;;;;;;;;;8.20;7.80;;;;;30.43;50.89;100273.09;4972410;28;8871;-87
2023/08/23 10:17:15;;;;;;;;;10.40;9.40;;;;;30.71;50.27;100276.75;4973706;28;8944;-87
2023/08/23 10:19:43;;;;;;;;;9.80;9.80;;;;;31.01;49.86;100278.22;4973980;28;8840;-87
2023/08/23 10:22:11;;;;;;;;;9.60;9.20;;;;;31.10;49.85;100264.91;4974247;28;8879;-87
2023/08/23 10:24:40;;;;;;;;;6.00;5.80;;;;;30.94;50.34;100272.00;4974860;28;8845;-87
2023/08/23 10:27:07;;;;;;;;;8.60;6.00;;;;;30.92;50.37;100271.44;4974908;28;8824;-87
2023/08/23 10:29:36;;;;;;;;;9.00;7.60;;;;;31.27;49.72;100274.06;4975214;28;8923;-87
2023/08/23 10:32:04;;;;;;;;;7.80;6.40;;;;;31.59;48.99;100264.13;4974182;28;8882;-87
2023/08/23 10:34:32;;;;;;;;;9.40;9.00;;;;;31.91;48.69;100268.00;4974124;28;8841;-87
2023/08/23 10:37:00;;;;;;;;;10.00;10.00;;;;;32.04;48.86;100264.91;4973301;28;8851;-87
2023/08/23 10:39:28;;;;;;;;;8.40;7.80;;;;;32.27;47.85;100262.81;4972610;28;8844;-87
2023/08/23 10:41:56;;;;;;;;;6.60;5.60;;;;;32.62;47.59;100266.00;4972927;28;8955;-87
2023/08/23 10:44:24;;;;;;;;;5.00;5.00;;;;;33.03;47.54;100261.84;4974117;28;8967;-86
2023/08/23 10:46:52;;;;;;;;;9.20;8.40;;;;;33.42;46.80;100252.31;4973610;28;8871;-86
2023/08/23 10:49:20;;;;;;;;;8.40;8.00;;;;;33.74;45.56;100247.63;4974557;28;8849;-86
2023/08/23 10:51:48;;;;;;;;;8.00;7.20;;;;;34.17;45.39;100244.59;4974811;28;8878;-86
2023/08/23 10:54:16;;;;;;;;;7.40;6.60;;;;;34.47;45.04;100242.88;4974850;28;8841;-86
2023/08/23 10:56:44;;;;;;;;;5.00;5.00;;;;;34.51;45.37;100245.94;4973150;28;8967;-87
2023/08/23 10:59:12;;;;;;;;;7.60;7.00;;;;;34.49;45.31;100246.19;4973208;28;8887;-86
2023/08/23 11:01:42;;;;;;;;;9.60;9.00;;;;;34.60;44.92;100241.53;4973309;28;8962;-86
2023/08/23 11:04:10;;;;;;;;;6.20;6.00;;;;;34.75;44.69;100241.63;4973464;28;8863;-86
2023/08/23 11:06:38;;;;;;;;;5.20;5.20;;;;;34.19;45.56;100246.00;4972409;28;8868;-86
2023/08/23 11:09:06;;;;;;;;;7.00;6.80;;;;;33.23;47.17;100253.75;4972647;28;8844;-87
2023/08/23 11:11:34;;;;;;;;;8.20;8.20;;;;;32.73;48.75;100247.66;4974383;28;8840;-86
2023/08/23 11:14:03;;;;;;;;;10.00;9.60;;;;;33.24;46.85;100241.63;4973647;28;8967;-86
2023/08/23 11:16:30;;;;;;;;;7.00;7.00;;;;;33.94;45.61;100234.81;4973350;28;8837;-86
2023/08/23 11:18:58;;;;;;;;;9.40;9.40;;;;;34.74;44.68;100235.25;4972388;28;8930;-86
2023/08/23 11:21:26;;;;;;;;;7.20;6.00;;;;;35.40;43.36;100241.81;4973123;28;8841;-86